sensor_id;sensor_type;location;lat;lon;timestamp;P1;durP1;ratioP1;P2;durP2;ratioP2
12816;SDS011;6473;51.552;6.716;2023-07-13T00:00:30;3.92;;;1.40;;
12816;SDS011;6473;51.552;6.716;2023-07-13T00:02:57;3.40;;;1.50;;
12816;SDS011;6473;51.552;6.716;2023-07-13T00:05:25;4.47;;;1.70;;
12816;SDS011;6473;51.552;6.716;2023-07-13T00:07:52;3.45;;;1.50;;
12816;SDS011;6473;51.552;6.716;2023-07-13T00:10:21;4.03;;;1.48;;
12816;SDS011;6473;51.552;6.716;2023-07-13T00:12:48;5.25;;;1.50;;
12816;SDS011;6473;51.552;6.716;2023-07-13T00:15:19;3.47;;;1.48;;
12816;SDS011;6473;51.552;6.716;2023-07-13T00:17:48;4.35;;;1.58;;
12816;SDS011;6473;51.552;6.716;2023-07-13T00:20:16;4.03;;;1.85;;
12816;SDS011;6473;51.552;6.716;2023-07-13T00:22:43;4.65;;;1.25;;
12816;SDS011;6473;51.552;6.716;2023-07-13T00:25:10;5.93;;;1.90;;
12816;SDS011;6473;51.552;6.716;2023-07-13T00:27:39;2.10;;;1.25;;
12816;SDS011;6473;51.552;6.716;2023-07-13T00:30:06;6.60;;;1.40;;
12816;SDS011;6473;51.552;6.716;2023-07-13T00:32:35;6.13;;;1.65;;
12816;SDS011;6473;51.552;6.716;2023-07-13T00:35:02;3.88;;;1.60;;
12816;SDS011;6473;51.552;6.716;2023-07-13T00:37:29;3.45;;;1.70;;
12816;SDS011;6473;51.552;6.716;2023-07-13T00:39:56;2.65;;;1.25;;
12816;SDS011;6473;51.552;6.716;2023-07-13T00:42:23;2.50;;;1.50;;
12816;SDS011;6473;51.552;6.716;2023-07-13T00:45:02;2.88;;;1.30;;
12816;SDS011;6473;51.552;6.716;2023-07-13T00:47:30;5.63;;;1.70;;
12816;SDS011;6473;51.552;6.716;2023-07-13T00:49:57;3.00;;;1.55;;
12816;SDS011;6473;51.552;6.716;2023-07-13T00:52:25;2.20;;;1.30;;
12816;SDS011;6473;51.552;6.716;2023-07-13T00:54:53;2.30;;;1.95;;
12816;SDS011;6473;51.552;6.716;2023-07-13T00:57:21;2.42;;;1.35;;
12816;SDS011;6473;51.552;6.716;2023-07-13T00:59:49;3.83;;;1.40;;
12816;SDS011;6473;51.552;6.716;2023-07-13T01:02:20;2.45;;;1.52;;
12816;SDS011;6473;51.552;6.716;2023-07-13T01:04:47;3.90;;;1.42;;
12816;SDS011;6473;51.552;6.716;2023-07-13T01:07:15;2.15;;;1.48;;
12816;SDS011;6473;51.552;6.716;2023-07-13T01:09:42;5.75;;;2.28;;
12816;SDS011;6473;51.552;6.716;2023-07-13T01:12:10;4.75;;;1.48;;
12816;SDS011;6473;51.552;6.716;2023-07-13T01:14:39;2.70;;;1.42;;
12816;SDS011;6473;51.552;6.716;2023-07-13T01:17:07;4.07;;;1.48;;
12816;SDS011;6473;51.552;6.716;2023-07-13T01:19:38;2.30;;;1.60;;
12816;SDS011;6473;51.552;6.716;2023-07-13T01:22:09;4.20;;;1.67;;
12816;SDS011;6473;51.552;6.716;2023-07-13T01:24:37;3.90;;;1.80;;
12816;SDS011;6473;51.552;6.716;2023-07-13T01:27:06;3.03;;;1.58;;
12816;SDS011;6473;51.552;6.716;2023-07-13T01:29:35;3.58;;;1.35;;
12816;SDS011;6473;51.552;6.716;2023-07-13T01:32:07;5.45;;;1.60;;
12816;SDS011;6473;51.552;6.716;2023-07-13T01:34:35;3.45;;;1.40;;
12816;SDS011;6473;51.552;6.716;2023-07-13T01:37:03;3.90;;;1.75;;
12816;SDS011;6473;51.552;6.716;2023-07-13T01:39:32;2.17;;;1.40;;
12816;SDS011;6473;51.552;6.716;2023-07-13T01:41:59;2.63;;;1.35;;
12816;SDS011;6473;51.552;6.716;2023-07-13T01:44:26;3.03;;;1.70;;
12816;SDS011;6473;51.552;6.716;2023-07-13T01:46:53;2.45;;;1.42;;
12816;SDS011;6473;51.552;6.716;2023-07-13T01:49:19;3.33;;;1.83;;
12816;SDS011;6473;51.552;6.716;2023-07-13T01:51:48;3.05;;;1.40;;
12816;SDS011;6473;51.552;6.716;2023-07-13T01:54:15;1.73;;;1.23;;
12816;SDS011;6473;51.552;6.716;2023-07-13T01:56:43;4.43;;;1.65;;
12816;SDS011;6473;51.552;6.716;2023-07-13T01:59:10;4.95;;;1.40;;
12816;SDS011;6473;51.552;6.716;2023-07-13T02:01:37;3.70;;;1.40;;
12816;SDS011;6473;51.552;6.716;2023-07-13T02:04:04;3.55;;;1.50;;
12816;SDS011;6473;51.552;6.716;2023-07-13T02:06:32;3.85;;;1.70;;
12816;SDS011;6473;51.552;6.716;2023-07-13T02:08:59;3.38;;;2.05;;
12816;SDS011;6473;51.552;6.716;2023-07-13T02:11:26;4.65;;;1.60;;
12816;SDS011;6473;51.552;6.716;2023-07-13T02:13:59;2.50;;;1.58;;
12816;SDS011;6473;51.552;6.716;2023-07-13T02:16:27;3.63;;;1.63;;
12816;SDS011;6473;51.552;6.716;2023-07-13T02:18:54;3.15;;;1.65;;
12816;SDS011;6473;51.552;6.716;2023-07-13T02:21:21;3.85;;;1.65;;
12816;SDS011;6473;51.552;6.716;2023-07-13T02:23:51;3.95;;;1.48;;
12816;SDS011;6473;51.552;6.716;2023-07-13T02:26:18;3.70;;;1.60;;
12816;SDS011;6473;51.552;6.716;2023-07-13T02:28:46;4.78;;;1.52;;
12816;SDS011;6473;51.552;6.716;2023-07-13T02:31:15;4.15;;;1.63;;
12816;SDS011;6473;51.552;6.716;2023-07-13T02:33:42;5.72;;;1.73;;
12816;SDS011;6473;51.552;6.716;2023-07-13T02:36:10;5.20;;;1.70;;
12816;SDS011;6473;51.552;6.716;2023-07-13T02:38:39;2.20;;;1.33;;
12816;SDS011;6473;51.552;6.716;2023-07-13T02:41:06;5.57;;;1.80;;
12816;SDS011;6473;51.552;6.716;2023-07-13T02:43:34;4.38;;;1.70;;
12816;SDS011;6473;51.552;6.716;2023-07-13T02:46:01;4.65;;;1.75;;
12816;SDS011;6473;51.552;6.716;2023-07-13T02:48:35;4.65;;;1.75;;
12816;SDS011;6473;51.552;6.716;2023-07-13T02:51:03;3.10;;;1.90;;
12816;SDS011;6473;51.552;6.716;2023-07-13T02:53:30;2.30;;;1.52;;
12816;SDS011;6473;51.552;6.716;2023-07-13T02:55:57;5.03;;;1.75;;
12816;SDS011;6473;51.552;6.716;2023-07-13T02:58:24;2.70;;;1.90;;
12816;SDS011;6473;51.552;6.716;2023-07-13T03:00:51;2.95;;;1.60;;
12816;SDS011;6473;51.552;6.716;2023-07-13T03:03:18;4.18;;;1.70;;
12816;SDS011;6473;51.552;6.716;2023-07-13T03:05:47;3.03;;;1.70;;
12816;SDS011;6473;51.552;6.716;2023-07-13T03:08:25;4.55;;;1.77;;
12816;SDS011;6473;51.552;6.716;2023-07-13T03:10:58;6.05;;;2.13;;
12816;SDS011;6473;51.552;6.716;2023-07-13T03:13:28;3.22;;;1.75;;
12816;SDS011;6473;51.552;6.716;2023-07-13T03:15:55;2.63;;;1.58;;
12816;SDS011;6473;51.552;6.716;2023-07-13T03:18:23;4.55;;;1.80;;
12816;SDS011;6473;51.552;6.716;2023-07-13T03:20:53;2.75;;;1.70;;
12816;SDS011;6473;51.552;6.716;2023-07-13T03:23:21;4.18;;;1.80;;
12816;SDS011;6473;51.552;6.716;2023-07-13T03:25:48;4.22;;;2.05;;
12816;SDS011;6473;51.552;6.716;2023-07-13T03:28:16;6.72;;;1.88;;
12816;SDS011;6473;51.552;6.716;2023-07-13T03:30:43;4.63;;;1.70;;
12816;SDS011;6473;51.552;6.716;2023-07-13T03:33:10;4.10;;;1.70;;
12816;SDS011;6473;51.552;6.716;2023-07-13T03:35:40;5.60;;;1.98;;
12816;SDS011;6473;51.552;6.716;2023-07-13T03:38:08;4.30;;;1.88;;
12816;SDS011;6473;51.552;6.716;2023-07-13T03:40:36;3.08;;;1.80;;
12816;SDS011;6473;51.552;6.716;2023-07-13T03:43:03;3.58;;;1.70;;
12816;SDS011;6473;51.552;6.716;2023-07-13T03:45:31;6.65;;;1.88;;
12816;SDS011;6473;51.552;6.716;2023-07-13T03:47:57;3.10;;;2.05;;
12816;SDS011;6473;51.552;6.716;2023-07-13T03:50:25;3.45;;;1.90;;
12816;SDS011;6473;51.552;6.716;2023-07-13T03:52:52;5.60;;;2.08;;
12816;SDS011;6473;51.552;6.716;2023-07-13T03:55:22;4.57;;;2.08;;
12816;SDS011;6473;51.552;6.716;2023-07-13T03:57:58;4.50;;;1.90;;
12816;SDS011;6473;51.552;6.716;2023-07-13T04:00:26;3.85;;;2.00;;
12816;SDS011;6473;51.552;6.716;2023-07-13T04:02:53;2.35;;;1.70;;
12816;SDS011;6473;51.552;6.716;2023-07-13T04:05:20;4.55;;;1.80;;
12816;SDS011;6473;51.552;6.716;2023-07-13T04:07:47;3.55;;;1.70;;
12816;SDS011;6473;51.552;6.716;2023-07-13T04:10:14;9.45;;;2.20;;
12816;SDS011;6473;51.552;6.716;2023-07-13T04:12:42;3.17;;;1.98;;
12816;SDS011;6473;51.552;6.716;2023-07-13T04:15:09;6.38;;;2.08;;
12816;SDS011;6473;51.552;6.716;2023-07-13T04:17:36;7.32;;;2.00;;
12816;SDS011;6473;51.552;6.716;2023-07-13T04:20:03;5.43;;;1.85;;
12816;SDS011;6473;51.552;6.716;2023-07-13T04:22:31;4.38;;;1.98;;
12816;SDS011;6473;51.552;6.716;2023-07-13T04:24:58;7.03;;;1.88;;
12816;SDS011;6473;51.552;6.716;2023-07-13T04:27:24;3.08;;;1.98;;
12816;SDS011;6473;51.552;6.716;2023-07-13T04:29:53;5.97;;;2.15;;
12816;SDS011;6473;51.552;6.716;2023-07-13T04:32:19;4.00;;;2.10;;
12816;SDS011;6473;51.552;6.716;2023-07-13T04:34:46;4.70;;;2.08;;
12816;SDS011;6473;51.552;6.716;2023-07-13T04:37:18;4.32;;;2.05;;
12816;SDS011;6473;51.552;6.716;2023-07-13T04:39:46;5.03;;;1.98;;
12816;SDS011;6473;51.552;6.716;2023-07-13T04:42:13;3.05;;;1.90;;
12816;SDS011;6473;51.552;6.716;2023-07-13T04:44:40;4.72;;;2.00;;
12816;SDS011;6473;51.552;6.716;2023-07-13T04:47:08;4.90;;;2.10;;
12816;SDS011;6473;51.552;6.716;2023-07-13T04:49:35;6.50;;;2.10;;
12816;SDS011;6473;51.552;6.716;2023-07-13T04:52:01;7.95;;;2.35;;
12816;SDS011;6473;51.552;6.716;2023-07-13T04:54:29;1.92;;;1.77;;
12816;SDS011;6473;51.552;6.716;2023-07-13T04:56:55;4.18;;;2.30;;
12816;SDS011;6473;51.552;6.716;2023-07-13T04:59:22;4.72;;;2.22;;
12816;SDS011;6473;51.552;6.716;2023-07-13T05:01:49;5.90;;;2.00;;
12816;SDS011;6473;51.552;6.716;2023-07-13T05:04:17;4.22;;;2.00;;
12816;SDS011;6473;51.552;6.716;2023-07-13T05:06:44;2.75;;;1.95;;
12816;SDS011;6473;51.552;6.716;2023-07-13T05:09:11;4.53;;;2.05;;
12816;SDS011;6473;51.552;6.716;2023-07-13T05:11:38;8.85;;;2.20;;
12816;SDS011;6473;51.552;6.716;2023-07-13T05:14:05;4.35;;;1.90;;
12816;SDS011;6473;51.552;6.716;2023-07-13T05:16:32;4.95;;;1.95;;
12816;SDS011;6473;51.552;6.716;2023-07-13T05:18:59;4.43;;;2.00;;
12816;SDS011;6473;51.552;6.716;2023-07-13T05:21:27;9.95;;;2.55;;
12816;SDS011;6473;51.552;6.716;2023-07-13T05:23:54;6.47;;;2.70;;
12816;SDS011;6473;51.552;6.716;2023-07-13T05:26:21;5.20;;;2.25;;
12816;SDS011;6473;51.552;6.716;2023-07-13T05:28:48;6.57;;;2.83;;
12816;SDS011;6473;51.552;6.716;2023-07-13T05:31:14;6.93;;;2.47;;
12816;SDS011;6473;51.552;6.716;2023-07-13T05:33:41;6.82;;;2.83;;
12816;SDS011;6473;51.552;6.716;2023-07-13T05:36:08;3.50;;;1.95;;
12816;SDS011;6473;51.552;6.716;2023-07-13T05:38:36;6.32;;;2.45;;
12816;SDS011;6473;51.552;6.716;2023-07-13T05:41:03;4.05;;;2.55;;
12816;SDS011;6473;51.552;6.716;2023-07-13T05:43:30;4.25;;;2.80;;
12816;SDS011;6473;51.552;6.716;2023-07-13T05:45:57;5.65;;;2.35;;
12816;SDS011;6473;51.552;6.716;2023-07-13T05:48:24;5.15;;;2.58;;
12816;SDS011;6473;51.552;6.716;2023-07-13T05:50:51;5.22;;;2.58;;
12816;SDS011;6473;51.552;6.716;2023-07-13T05:53:18;6.90;;;3.85;;
12816;SDS011;6473;51.552;6.716;2023-07-13T05:55:46;7.60;;;2.53;;
12816;SDS011;6473;51.552;6.716;2023-07-13T05:58:16;8.38;;;3.13;;
12816;SDS011;6473;51.552;6.716;2023-07-13T06:00:43;3.75;;;2.47;;
12816;SDS011;6473;51.552;6.716;2023-07-13T06:03:10;6.15;;;2.67;;
12816;SDS011;6473;51.552;6.716;2023-07-13T06:05:36;7.25;;;2.85;;
12816;SDS011;6473;51.552;6.716;2023-07-13T06:08:05;7.72;;;3.00;;
12816;SDS011;6473;51.552;6.716;2023-07-13T06:10:33;5.53;;;3.00;;
12816;SDS011;6473;51.552;6.716;2023-07-13T06:13:01;8.40;;;3.25;;
12816;SDS011;6473;51.552;6.716;2023-07-13T06:15:29;6.85;;;2.80;;
12816;SDS011;6473;51.552;6.716;2023-07-13T06:17:56;7.35;;;2.75;;
12816;SDS011;6473;51.552;6.716;2023-07-13T06:20:22;7.88;;;3.05;;
12816;SDS011;6473;51.552;6.716;2023-07-13T06:22:49;4.70;;;2.40;;
12816;SDS011;6473;51.552;6.716;2023-07-13T06:25:16;10.45;;;3.30;;
12816;SDS011;6473;51.552;6.716;2023-07-13T06:27:43;5.50;;;2.90;;
12816;SDS011;6473;51.552;6.716;2023-07-13T06:30:12;9.20;;;3.20;;
12816;SDS011;6473;51.552;6.716;2023-07-13T06:32:39;6.22;;;3.30;;
12816;SDS011;6473;51.552;6.716;2023-07-13T06:35:06;12.68;;;2.72;;
12816;SDS011;6473;51.552;6.716;2023-07-13T06:37:33;7.57;;;3.17;;
12816;SDS011;6473;51.552;6.716;2023-07-13T06:40:00;5.97;;;3.33;;
12816;SDS011;6473;51.552;6.716;2023-07-13T06:42:27;6.07;;;3.00;;
12816;SDS011;6473;51.552;6.716;2023-07-13T06:44:53;5.00;;;2.70;;
12816;SDS011;6473;51.552;6.716;2023-07-13T06:47:21;9.13;;;3.75;;
12816;SDS011;6473;51.552;6.716;2023-07-13T06:49:49;7.85;;;3.10;;
12816;SDS011;6473;51.552;6.716;2023-07-13T06:52:15;10.90;;;3.40;;
12816;SDS011;6473;51.552;6.716;2023-07-13T06:54:42;8.40;;;3.25;;
12816;SDS011;6473;51.552;6.716;2023-07-13T06:57:09;6.72;;;3.55;;
12816;SDS011;6473;51.552;6.716;2023-07-13T06:59:36;7.78;;;3.10;;
12816;SDS011;6473;51.552;6.716;2023-07-13T07:02:03;11.93;;;3.30;;
12816;SDS011;6473;51.552;6.716;2023-07-13T07:04:32;6.55;;;3.45;;
12816;SDS011;6473;51.552;6.716;2023-07-13T07:06:59;7.80;;;2.95;;
12816;SDS011;6473;51.552;6.716;2023-07-13T07:09:25;5.63;;;2.88;;
12816;SDS011;6473;51.552;6.716;2023-07-13T07:11:54;8.15;;;3.40;;
12816;SDS011;6473;51.552;6.716;2023-07-13T07:14:21;4.82;;;2.90;;
12816;SDS011;6473;51.552;6.716;2023-07-13T07:16:49;6.60;;;3.40;;
12816;SDS011;6473;51.552;6.716;2023-07-13T07:19:16;4.22;;;3.00;;
12816;SDS011;6473;51.552;6.716;2023-07-13T07:21:44;8.73;;;3.75;;
12816;SDS011;6473;51.552;6.716;2023-07-13T07:24:11;5.95;;;3.50;;
12816;SDS011;6473;51.552;6.716;2023-07-13T07:26:38;8.13;;;3.20;;
12816;SDS011;6473;51.552;6.716;2023-07-13T07:29:04;8.90;;;3.45;;
12816;SDS011;6473;51.552;6.716;2023-07-13T07:31:31;5.68;;;3.03;;
12816;SDS011;6473;51.552;6.716;2023-07-13T07:33:58;7.60;;;3.20;;
12816;SDS011;6473;51.552;6.716;2023-07-13T07:36:25;7.95;;;3.50;;
12816;SDS011;6473;51.552;6.716;2023-07-13T07:38:54;8.65;;;3.28;;
12816;SDS011;6473;51.552;6.716;2023-07-13T07:41:21;9.20;;;3.38;;
12816;SDS011;6473;51.552;6.716;2023-07-13T07:43:47;9.20;;;3.47;;
12816;SDS011;6473;51.552;6.716;2023-07-13T07:46:14;11.95;;;3.40;;
12816;SDS011;6473;51.552;6.716;2023-07-13T07:48:41;6.72;;;3.55;;
12816;SDS011;6473;51.552;6.716;2023-07-13T07:51:08;8.75;;;3.42;;
12816;SDS011;6473;51.552;6.716;2023-07-13T07:53:35;8.18;;;3.03;;
12816;SDS011;6473;51.552;6.716;2023-07-13T07:56:03;3.75;;;2.65;;
12816;SDS011;6473;51.552;6.716;2023-07-13T07:58:30;7.07;;;2.83;;
12816;SDS011;6473;51.552;6.716;2023-07-13T08:01:04;6.32;;;2.92;;
12816;SDS011;6473;51.552;6.716;2023-07-13T08:03:31;5.38;;;3.20;;
12816;SDS011;6473;51.552;6.716;2023-07-13T08:09:05;5.47;;;2.70;;
12816;SDS011;6473;51.552;6.716;2023-07-13T08:11:34;4.45;;;3.00;;
12816;SDS011;6473;51.552;6.716;2023-07-13T08:14:01;5.22;;;2.92;;
12816;SDS011;6473;51.552;6.716;2023-07-13T08:16:28;4.88;;;2.45;;
12816;SDS011;6473;51.552;6.716;2023-07-13T08:18:56;6.70;;;3.35;;
12816;SDS011;6473;51.552;6.716;2023-07-13T08:21:23;6.22;;;3.22;;
12816;SDS011;6473;51.552;6.716;2023-07-13T08:23:49;5.35;;;2.75;;
12816;SDS011;6473;51.552;6.716;2023-07-13T08:26:16;5.28;;;3.00;;
12816;SDS011;6473;51.552;6.716;2023-07-13T08:28:45;6.40;;;2.90;;
12816;SDS011;6473;51.552;6.716;2023-07-13T08:31:11;6.20;;;2.70;;
12816;SDS011;6473;51.552;6.716;2023-07-13T08:33:39;6.38;;;3.03;;
12816;SDS011;6473;51.552;6.716;2023-07-13T08:36:06;5.35;;;3.00;;
12816;SDS011;6473;51.552;6.716;2023-07-13T08:38:33;4.82;;;3.00;;
12816;SDS011;6473;51.552;6.716;2023-07-13T08:41:02;5.50;;;2.83;;
12816;SDS011;6473;51.552;6.716;2023-07-13T08:43:36;5.63;;;2.67;;
12816;SDS011;6473;51.552;6.716;2023-07-13T08:46:07;6.22;;;2.75;;
12816;SDS011;6473;51.552;6.716;2023-07-13T08:48:40;5.85;;;3.03;;
12816;SDS011;6473;51.552;6.716;2023-07-13T08:51:16;8.98;;;3.00;;
12816;SDS011;6473;51.552;6.716;2023-07-13T08:53:54;4.30;;;2.90;;
12816;SDS011;6473;51.552;6.716;2023-07-13T08:56:25;7.32;;;3.28;;
12816;SDS011;6473;51.552;6.716;2023-07-13T08:58:55;6.88;;;3.10;;
12816;SDS011;6473;51.552;6.716;2023-07-13T09:01:28;7.35;;;3.55;;
12816;SDS011;6473;51.552;6.716;2023-07-13T09:04:00;4.45;;;2.70;;
12816;SDS011;6473;51.552;6.716;2023-07-13T09:06:34;5.63;;;2.85;;
12816;SDS011;6473;51.552;6.716;2023-07-13T09:09:07;4.63;;;3.30;;
12816;SDS011;6473;51.552;6.716;2023-07-13T09:11:45;5.68;;;2.75;;
12816;SDS011;6473;51.552;6.716;2023-07-13T09:17:11;6.60;;;3.28;;
12816;SDS011;6473;51.552;6.716;2023-07-13T09:19:42;7.03;;;2.55;;
12816;SDS011;6473;51.552;6.716;2023-07-13T09:22:13;5.30;;;2.38;;
12816;SDS011;6473;51.552;6.716;2023-07-13T09:24:47;4.50;;;2.70;;
12816;SDS011;6473;51.552;6.716;2023-07-13T09:27:26;5.97;;;2.80;;
12816;SDS011;6473;51.552;6.716;2023-07-13T09:29:58;6.30;;;2.75;;
12816;SDS011;6473;51.552;6.716;2023-07-13T09:32:32;5.25;;;2.85;;
12816;SDS011;6473;51.552;6.716;2023-07-13T09:35:00;6.70;;;2.60;;
12816;SDS011;6473;51.552;6.716;2023-07-13T09:37:29;4.05;;;2.80;;
12816;SDS011;6473;51.552;6.716;2023-07-13T09:39:58;6.90;;;2.85;;
12816;SDS011;6473;51.552;6.716;2023-07-13T09:42:30;3.90;;;2.40;;
12816;SDS011;6473;51.552;6.716;2023-07-13T09:45:00;4.20;;;2.75;;
12816;SDS011;6473;51.552;6.716;2023-07-13T09:47:29;5.15;;;2.83;;
12816;SDS011;6473;51.552;6.716;2023-07-13T09:49:59;6.20;;;2.60;;
12816;SDS011;6473;51.552;6.716;2023-07-13T09:52:27;4.90;;;2.50;;
12816;SDS011;6473;51.552;6.716;2023-07-13T09:55:11;5.65;;;2.38;;
12816;SDS011;6473;51.552;6.716;2023-07-13T09:57:50;6.00;;;3.13;;
12816;SDS011;6473;51.552;6.716;2023-07-13T10:00:21;5.13;;;2.50;;
12816;SDS011;6473;51.552;6.716;2023-07-13T10:02:58;5.38;;;2.53;;
12816;SDS011;6473;51.552;6.716;2023-07-13T10:05:28;6.80;;;2.47;;
12816;SDS011;6473;51.552;6.716;2023-07-13T10:08:04;4.10;;;2.35;;
12816;SDS011;6473;51.552;6.716;2023-07-13T10:10:32;5.53;;;2.70;;
12816;SDS011;6473;51.552;6.716;2023-07-13T10:13:00;6.32;;;2.92;;
12816;SDS011;6473;51.552;6.716;2023-07-13T10:15:29;3.97;;;2.65;;
12816;SDS011;6473;51.552;6.716;2023-07-13T10:17:56;4.55;;;2.40;;
12816;SDS011;6473;51.552;6.716;2023-07-13T10:20:24;5.38;;;2.10;;
12816;SDS011;6473;51.552;6.716;2023-07-13T10:22:55;6.43;;;2.78;;
12816;SDS011;6473;51.552;6.716;2023-07-13T10:25:26;5.38;;;2.25;;
12816;SDS011;6473;51.552;6.716;2023-07-13T10:27:58;5.70;;;2.50;;
12816;SDS011;6473;51.552;6.716;2023-07-13T10:30:31;3.45;;;2.50;;
12816;SDS011;6473;51.552;6.716;2023-07-13T10:33:01;3.90;;;2.40;;
12816;SDS011;6473;51.552;6.716;2023-07-13T10:35:30;4.65;;;2.40;;
12816;SDS011;6473;51.552;6.716;2023-07-13T10:38:00;7.00;;;2.40;;
12816;SDS011;6473;51.552;6.716;2023-07-13T10:40:32;3.65;;;2.38;;
12816;SDS011;6473;51.552;6.716;2023-07-13T10:43:03;6.35;;;2.30;;
12816;SDS011;6473;51.552;6.716;2023-07-13T10:45:35;4.38;;;2.10;;
12816;SDS011;6473;51.552;6.716;2023-07-13T10:48:03;6.78;;;2.90;;
12816;SDS011;6473;51.552;6.716;2023-07-13T10:50:31;4.85;;;2.08;;
12816;SDS011;6473;51.552;6.716;2023-07-13T10:53:02;5.78;;;2.55;;
12816;SDS011;6473;51.552;6.716;2023-07-13T10:55:54;3.88;;;1.83;;
12816;SDS011;6473;51.552;6.716;2023-07-13T10:58:28;5.35;;;1.92;;
12816;SDS011;6473;51.552;6.716;2023-07-13T11:01:02;3.63;;;2.20;;
12816;SDS011;6473;51.552;6.716;2023-07-13T11:03:34;2.42;;;1.85;;
12816;SDS011;6473;51.552;6.716;2023-07-13T11:06:07;3.70;;;2.00;;
12816;SDS011;6473;51.552;6.716;2023-07-13T11:08:39;6.68;;;2.17;;
12816;SDS011;6473;51.552;6.716;2023-07-13T11:11:35;3.25;;;2.17;;
12816;SDS011;6473;51.552;6.716;2023-07-13T11:14:05;3.85;;;2.00;;
12816;SDS011;6473;51.552;6.716;2023-07-13T11:16:52;1.65;;;1.52;;
12816;SDS011;6473;51.552;6.716;2023-07-13T11:19:38;4.65;;;1.95;;
12816;SDS011;6473;51.552;6.716;2023-07-13T11:22:11;5.13;;;1.90;;
12816;SDS011;6473;51.552;6.716;2023-07-13T11:27:50;4.00;;;2.00;;
12816;SDS011;6473;51.552;6.716;2023-07-13T11:32:51;4.28;;;2.25;;
12816;SDS011;6473;51.552;6.716;2023-07-13T11:35:35;2.75;;;1.83;;
12816;SDS011;6473;51.552;6.716;2023-07-13T11:38:08;3.35;;;2.22;;
12816;SDS011;6473;51.552;6.716;2023-07-13T11:40:42;5.85;;;2.65;;
12816;SDS011;6473;51.552;6.716;2023-07-13T11:43:11;4.65;;;1.95;;
12816;SDS011;6473;51.552;6.716;2023-07-13T11:45:40;5.30;;;1.83;;
12816;SDS011;6473;51.552;6.716;2023-07-13T11:48:21;3.13;;;2.00;;
12816;SDS011;6473;51.552;6.716;2023-07-13T11:50:51;2.30;;;1.80;;
12816;SDS011;6473;51.552;6.716;2023-07-13T11:53:20;4.47;;;1.80;;
12816;SDS011;6473;51.552;6.716;2023-07-13T11:55:49;3.42;;;1.63;;
12816;SDS011;6473;51.552;6.716;2023-07-13T11:58:18;3.75;;;1.63;;
12816;SDS011;6473;51.552;6.716;2023-07-13T12:00:49;3.13;;;1.73;;
12816;SDS011;6473;51.552;6.716;2023-07-13T12:03:20;3.40;;;1.70;;
12816;SDS011;6473;51.552;6.716;2023-07-13T12:05:56;4.00;;;1.85;;
12816;SDS011;6473;51.552;6.716;2023-07-13T12:08:25;2.47;;;1.65;;
12816;SDS011;6473;51.552;6.716;2023-07-13T12:11:00;3.75;;;2.00;;
12816;SDS011;6473;51.552;6.716;2023-07-13T12:13:35;5.20;;;1.80;;
12816;SDS011;6473;51.552;6.716;2023-07-13T12:16:14;2.92;;;1.70;;
12816;SDS011;6473;51.552;6.716;2023-07-13T12:18:43;4.28;;;1.80;;
12816;SDS011;6473;51.552;6.716;2023-07-13T12:21:13;2.80;;;1.70;;
12816;SDS011;6473;51.552;6.716;2023-07-13T12:23:44;2.38;;;1.67;;
12816;SDS011;6473;51.552;6.716;2023-07-13T12:26:15;3.47;;;1.77;;
12816;SDS011;6473;51.552;6.716;2023-07-13T12:28:45;2.80;;;1.45;;
12816;SDS011;6473;51.552;6.716;2023-07-13T12:31:23;3.13;;;1.85;;
12816;SDS011;6473;51.552;6.716;2023-07-13T12:33:58;3.35;;;1.70;;
12816;SDS011;6473;51.552;6.716;2023-07-13T12:36:29;3.72;;;1.75;;
12816;SDS011;6473;51.552;6.716;2023-07-13T12:38:59;4.40;;;1.83;;
12816;SDS011;6473;51.552;6.716;2023-07-13T12:41:31;2.45;;;1.70;;
12816;SDS011;6473;51.552;6.716;2023-07-13T12:43:59;2.47;;;1.55;;
12816;SDS011;6473;51.552;6.716;2023-07-13T12:46:27;5.32;;;2.00;;
12816;SDS011;6473;51.552;6.716;2023-07-13T12:48:55;3.20;;;2.10;;
12816;SDS011;6473;51.552;6.716;2023-07-13T12:51:25;4.22;;;2.30;;
12816;SDS011;6473;51.552;6.716;2023-07-13T12:53:56;2.53;;;2.22;;
12816;SDS011;6473;51.552;6.716;2023-07-13T12:56:34;2.30;;;2.10;;
12816;SDS011;6473;51.552;6.716;2023-07-13T12:59:01;3.15;;;2.28;;
12816;SDS011;6473;51.552;6.716;2023-07-13T13:01:31;3.13;;;1.85;;
12816;SDS011;6473;51.552;6.716;2023-07-13T13:04:02;3.30;;;2.20;;
12816;SDS011;6473;51.552;6.716;2023-07-13T13:06:31;2.70;;;2.33;;
12816;SDS011;6473;51.552;6.716;2023-07-13T13:09:01;3.00;;;2.05;;
12816;SDS011;6473;51.552;6.716;2023-07-13T13:11:29;3.35;;;2.65;;
12816;SDS011;6473;51.552;6.716;2023-07-13T13:13:59;2.97;;;2.20;;
12816;SDS011;6473;51.552;6.716;2023-07-13T13:16:29;4.57;;;1.95;;
12816;SDS011;6473;51.552;6.716;2023-07-13T13:18:59;3.90;;;2.38;;
12816;SDS011;6473;51.552;6.716;2023-07-13T13:21:30;3.25;;;2.20;;
12816;SDS011;6473;51.552;6.716;2023-07-13T13:23:57;5.38;;;2.40;;
12816;SDS011;6473;51.552;6.716;2023-07-13T13:26:24;2.92;;;2.20;;
12816;SDS011;6473;51.552;6.716;2023-07-13T13:28:51;3.30;;;2.45;;
12816;SDS011;6473;51.552;6.716;2023-07-13T13:31:20;4.50;;;2.50;;
12816;SDS011;6473;51.552;6.716;2023-07-13T13:33:47;5.32;;;2.55;;
12816;SDS011;6473;51.552;6.716;2023-07-13T13:36:15;3.47;;;2.95;;
12816;SDS011;6473;51.552;6.716;2023-07-13T13:38:43;4.38;;;2.67;;
12816;SDS011;6473;51.552;6.716;2023-07-13T13:41:10;2.75;;;2.42;;
12816;SDS011;6473;51.552;6.716;2023-07-13T13:43:39;3.67;;;3.10;;
12816;SDS011;6473;51.552;6.716;2023-07-13T13:46:11;4.10;;;3.38;;
12816;SDS011;6473;51.552;6.716;2023-07-13T13:48:42;4.72;;;2.92;;
12816;SDS011;6473;51.552;6.716;2023-07-13T13:51:14;4.22;;;2.80;;
12816;SDS011;6473;51.552;6.716;2023-07-13T13:53:43;3.85;;;3.38;;
12816;SDS011;6473;51.552;6.716;2023-07-13T13:56:11;3.97;;;3.40;;
12816;SDS011;6473;51.552;6.716;2023-07-13T13:58:38;4.18;;;3.75;;
12816;SDS011;6473;51.552;6.716;2023-07-13T14:01:09;6.05;;;4.10;;
12816;SDS011;6473;51.552;6.716;2023-07-13T14:03:39;5.90;;;3.65;;
12816;SDS011;6473;51.552;6.716;2023-07-13T14:06:08;4.28;;;3.65;;
12816;SDS011;6473;51.552;6.716;2023-07-13T14:08:37;8.23;;;3.92;;
12816;SDS011;6473;51.552;6.716;2023-07-13T14:11:05;3.72;;;3.42;;
12816;SDS011;6473;51.552;6.716;2023-07-13T14:13:36;4.72;;;3.75;;
12816;SDS011;6473;51.552;6.716;2023-07-13T14:16:09;3.15;;;2.95;;
12816;SDS011;6473;51.552;6.716;2023-07-13T14:18:37;3.60;;;2.90;;
12816;SDS011;6473;51.552;6.716;2023-07-13T14:21:09;3.85;;;2.80;;
12816;SDS011;6473;51.552;6.716;2023-07-13T14:23:39;3.13;;;2.70;;
12816;SDS011;6473;51.552;6.716;2023-07-13T14:26:08;4.25;;;2.10;;
12816;SDS011;6473;51.552;6.716;2023-07-13T14:28:38;2.55;;;2.20;;
12816;SDS011;6473;51.552;6.716;2023-07-13T14:31:08;2.83;;;2.25;;
12816;SDS011;6473;51.552;6.716;2023-07-13T14:33:35;2.33;;;1.80;;
12816;SDS011;6473;51.552;6.716;2023-07-13T14:36:02;3.50;;;2.30;;
12816;SDS011;6473;51.552;6.716;2023-07-13T14:38:33;2.33;;;1.55;;
12816;SDS011;6473;51.552;6.716;2023-07-13T14:41:00;2.70;;;1.88;;
12816;SDS011;6473;51.552;6.716;2023-07-13T14:43:27;2.60;;;1.88;;
12816;SDS011;6473;51.552;6.716;2023-07-13T14:45:54;3.55;;;2.20;;
12816;SDS011;6473;51.552;6.716;2023-07-13T14:48:22;5.90;;;2.60;;
12816;SDS011;6473;51.552;6.716;2023-07-13T14:50:51;3.08;;;2.45;;
12816;SDS011;6473;51.552;6.716;2023-07-13T14:53:20;2.22;;;1.92;;
12816;SDS011;6473;51.552;6.716;2023-07-13T14:55:48;2.25;;;1.75;;
12816;SDS011;6473;51.552;6.716;2023-07-13T14:58:15;2.58;;;1.92;;
12816;SDS011;6473;51.552;6.716;2023-07-13T15:00:42;3.63;;;2.08;;
12816;SDS011;6473;51.552;6.716;2023-07-13T15:03:14;3.88;;;2.30;;
12816;SDS011;6473;51.552;6.716;2023-07-13T15:05:46;4.60;;;2.33;;
12816;SDS011;6473;51.552;6.716;2023-07-13T15:08:14;3.13;;;2.33;;
12816;SDS011;6473;51.552;6.716;2023-07-13T15:10:42;4.40;;;2.28;;
12816;SDS011;6473;51.552;6.716;2023-07-13T15:13:14;3.67;;;2.40;;
12816;SDS011;6473;51.552;6.716;2023-07-13T15:15:43;4.75;;;2.90;;
12816;SDS011;6473;51.552;6.716;2023-07-13T15:18:12;4.03;;;2.90;;
12816;SDS011;6473;51.552;6.716;2023-07-13T15:20:43;5.18;;;2.80;;
12816;SDS011;6473;51.552;6.716;2023-07-13T15:23:11;4.25;;;2.50;;